createdAt,value
2022-09-12T00:01:45.559Z,18.50
2022-09-12T00:04:51.571Z,18.44
2022-09-12T00:07:57.228Z,18.42
2022-09-12T00:11:07.646Z,18.55
2022-09-12T00:14:18.944Z,18.62
2022-09-12T00:17:24.114Z,18.54
2022-09-12T00:20:29.644Z,18.52
2022-09-12T00:23:35.201Z,18.50
2022-09-12T00:26:40.585Z,18.46
2022-09-12T00:29:46.340Z,18.61
2022-09-12T00:32:51.964Z,18.43
2022-09-12T00:35:57.580Z,18.50
2022-09-12T00:39:04.263Z,18.35
2022-09-12T00:42:12.467Z,18.48
2022-09-12T00:45:28.105Z,18.36
2022-09-12T00:48:44.725Z,18.53
2022-09-12T00:51:59.791Z,18.60
2022-09-12T00:55:13.490Z,18.40
2022-09-12T00:58:44.004Z,18.20
2022-09-12T01:01:52.395Z,18.26
2022-09-12T01:04:57.974Z,18.39
2022-09-12T01:08:05.000Z,18.39
2022-09-12T01:11:13.312Z,18.38
2022-09-12T01:14:20.597Z,18.30
2022-09-12T01:17:37.956Z,18.26
2022-09-12T01:21:07.263Z,18.20
2022-09-12T01:24:42.262Z,18.19
2022-09-12T01:28:24.529Z,18.13
2022-09-12T01:31:41.679Z,18.06
2022-09-12T01:34:55.159Z,17.96
2022-09-12T01:38:14.076Z,18.04
2022-09-12T01:41:59.652Z,17.78
2022-09-12T01:45:12.115Z,17.79
2022-09-12T01:48:27.101Z,18.00
2022-09-12T01:51:40.491Z,17.99
2022-09-12T01:54:56.447Z,18.04
2022-09-12T01:58:15.052Z,18.02
2022-09-12T02:01:25.353Z,18.16
2022-09-12T02:04:36.414Z,18.14
2022-09-12T02:07:53.530Z,18.00
2022-09-12T02:11:08.406Z,18.09
2022-09-12T02:14:24.549Z,18.11
2022-09-12T02:17:32.699Z,17.98
2022-09-12T02:20:49.005Z,18.06
2022-09-12T02:24:00.125Z,17.93
2022-09-12T02:27:26.432Z,18.04
2022-09-12T02:30:40.349Z,18.05
2022-09-12T02:33:50.343Z,17.99
2022-09-12T02:37:13.525Z,17.95
2022-09-12T02:40:19.595Z,17.93
2022-09-12T02:43:25.533Z,17.91
2022-09-12T02:46:41.620Z,17.92
2022-09-12T02:49:47.778Z,17.92
2022-09-12T02:52:55.889Z,18.01
2022-09-12T02:56:01.773Z,17.96
2022-09-12T02:59:09.863Z,17.90
2022-09-12T03:02:44.581Z,17.98
2022-09-12T03:06:00.306Z,17.89
2022-09-12T03:09:21.639Z,17.96
2022-09-12T03:12:45.402Z,17.86
2022-09-12T03:16:23.201Z,17.97
2022-09-12T03:19:57.987Z,17.92
2022-09-12T03:23:11.938Z,17.85
2022-09-12T03:26:26.155Z,17.64
2022-09-12T03:29:32.545Z,17.55
2022-09-12T03:32:50.831Z,17.57
2022-09-12T03:35:56.841Z,17.62
2022-09-12T03:39:02.447Z,17.62
2022-09-12T03:42:07.927Z,17.54
2022-09-12T03:45:13.561Z,17.67
2022-09-12T03:48:19.320Z,17.46
2022-09-12T03:51:24.712Z,17.55
2022-09-12T03:54:30.323Z,17.75
2022-09-12T03:57:35.738Z,17.90
2022-09-12T04:00:43.093Z,17.73
2022-09-12T04:03:52.197Z,17.62
2022-09-12T04:06:57.901Z,17.76
2022-09-12T04:10:04.080Z,17.62
2022-09-12T04:13:09.740Z,17.71
2022-09-12T04:16:16.923Z,17.54
2022-09-12T04:19:23.957Z,17.46
2022-09-12T04:22:30.492Z,17.32
2022-09-12T04:25:35.800Z,17.43
2022-09-12T04:28:41.720Z,17.41
2022-09-12T04:31:46.924Z,17.37
2022-09-12T04:34:52.984Z,17.36
2022-09-12T04:37:58.847Z,17.39
2022-09-12T04:41:14.707Z,17.41
2022-09-12T04:44:19.988Z,17.38
2022-09-12T04:47:25.112Z,17.24
2022-09-12T04:50:30.691Z,17.32
2022-09-12T04:53:38.069Z,17.17
2022-09-12T04:56:47.328Z,17.22
2022-09-12T04:59:52.533Z,17.15
2022-09-12T05:02:58.160Z,17.28
2022-09-12T05:06:04.123Z,17.23
2022-09-12T05:09:14.589Z,17.19
2022-09-12T05:12:20.384Z,17.37
2022-09-12T05:15:26.568Z,17.17
2022-09-12T05:18:36.893Z,17.41
2022-09-12T05:21:42.444Z,17.50
2022-09-12T05:24:50.746Z,17.56
2022-09-12T05:27:57.072Z,17.77
2022-09-12T05:31:05.880Z,17.73
2022-09-12T05:34:12.043Z,17.88
2022-09-12T05:37:17.993Z,17.85
2022-09-12T05:40:23.528Z,17.94
2022-09-12T05:43:28.970Z,17.74
2022-09-12T05:46:40.171Z,17.92
2022-09-12T05:49:48.422Z,17.96
2022-09-12T05:52:55.355Z,18.12
2022-09-12T05:56:13.036Z,17.99
2022-09-12T05:59:21.707Z,17.98
2022-09-12T06:02:26.894Z,18.00
2022-09-12T06:05:33.700Z,18.00
2022-09-12T06:08:40.372Z,18.20
2022-09-12T06:11:47.063Z,18.26
2022-09-12T06:14:52.689Z,18.30
2022-09-12T06:17:58.437Z,18.42
2022-09-12T06:21:09.073Z,18.67
2022-09-12T06:24:14.422Z,18.73
2022-09-12T06:27:20.104Z,18.69
2022-09-12T06:30:25.684Z,18.97
2022-09-12T06:33:33.690Z,19.11
2022-09-12T06:36:43.442Z,19.19
2022-09-12T06:39:49.159Z,19.03
2022-09-12T06:42:54.825Z,19.03
2022-09-12T06:46:13.303Z,19.20
2022-09-12T06:49:18.945Z,19.27
2022-09-12T06:52:24.166Z,19.49
2022-09-12T06:55:30.373Z,19.51
2022-09-12T06:58:36.281Z,19.85
2022-09-12T07:01:42.262Z,20.03
2022-09-12T07:04:50.212Z,20.15
2022-09-12T07:07:56.285Z,20.11
2022-09-12T07:11:20.419Z,20.23
2022-09-12T07:14:26.382Z,20.30
2022-09-12T07:17:32.385Z,20.40
2022-09-12T07:20:38.670Z,20.65
2022-09-12T07:23:45.251Z,20.72
2022-09-12T07:26:50.935Z,20.83
2022-09-12T07:29:56.529Z,21.03
2022-09-12T07:33:02.384Z,21.01
2022-09-12T07:36:12.073Z,21.25
2022-09-12T07:39:17.777Z,21.18
2022-09-12T07:42:23.633Z,21.29
2022-09-12T07:45:30.276Z,21.37
2022-09-12T07:48:36.995Z,21.68
2022-09-12T07:51:42.713Z,21.72
2022-09-12T07:54:48.628Z,21.56
2022-09-12T07:57:54.448Z,21.70
2022-09-12T08:01:14.101Z,22.06
2022-09-12T08:04:19.703Z,21.98
2022-09-12T08:07:25.560Z,21.97
2022-09-12T08:10:31.202Z,22.30
2022-09-12T08:13:38.533Z,22.32
2022-09-12T08:16:44.877Z,22.38
2022-09-12T08:19:50.594Z,22.40
2022-09-12T08:22:56.918Z,22.43
2022-09-12T08:26:06.383Z,22.62
2022-09-12T08:29:12.547Z,22.71
2022-09-12T08:32:18.025Z,22.80
2022-09-12T08:35:23.576Z,22.78
2022-09-12T08:38:30.321Z,22.97
2022-09-12T08:41:49.624Z,23.07
2022-09-12T08:45:19.341Z,23.19
2022-09-12T08:48:24.847Z,23.13
2022-09-12T08:51:34.754Z,23.39
2022-09-12T08:54:40.938Z,23.35
2022-09-12T08:57:47.589Z,23.38
2022-09-12T09:01:14.888Z,23.23
2022-09-12T09:04:57.938Z,23.44
2022-09-12T09:08:31.399Z,23.54
2022-09-12T09:11:43.180Z,23.57
2022-09-12T09:15:02.622Z,23.67
2022-09-12T09:18:23.881Z,23.81
2022-09-12T09:21:32.034Z,23.90
2022-09-12T09:24:43.205Z,23.85
2022-09-12T09:28:02.317Z,24.01
2022-09-12T09:31:17.461Z,23.81
2022-09-12T09:34:29.612Z,23.94
2022-09-12T09:37:43.675Z,24.02
2022-09-12T09:40:52.259Z,24.01
2022-09-12T09:43:59.011Z,24.02
2022-09-12T09:47:05.620Z,24.35
2022-09-12T09:50:17.463Z,24.10
2022-09-12T09:53:57.585Z,24.22
2022-09-12T09:57:04.165Z,24.30
2022-09-12T10:00:27.599Z,24.36
2022-09-12T10:03:41.086Z,24.48
2022-09-12T10:06:47.017Z,24.49
2022-09-12T10:10:15.494Z,24.56
2022-09-12T10:13:31.395Z,24.67
2022-09-12T10:16:53.567Z,24.68
2022-09-12T10:20:19.933Z,24.79
2022-09-12T10:23:41.219Z,24.65
2022-09-12T10:26:56.919Z,24.66
2022-09-12T10:30:15.127Z,24.66
2022-09-12T10:33:21.021Z,24.89
2022-09-12T10:36:36.444Z,25.21
2022-09-12T10:39:50.954Z,25.33
2022-09-12T10:43:00.119Z,24.99
2022-09-12T10:46:27.659Z,25.00
2022-09-12T10:49:40.454Z,25.17
2022-09-12T10:52:46.339Z,25.39
2022-09-12T10:56:10.114Z,25.40
2022-09-12T10:59:56.005Z,25.40
2022-09-12T11:03:37.617Z,25.29
2022-09-12T11:06:53.837Z,25.42
2022-09-12T11:10:23.547Z,25.45
2022-09-12T11:13:56.063Z,25.10
2022-09-12T11:17:16.805Z,25.14
2022-09-12T11:20:25.650Z,25.42
2022-09-12T11:23:42.636Z,25.31
2022-09-12T11:27:04.890Z,25.61
2022-09-12T11:30:11.138Z,25.37
2022-09-12T12:27:46.288Z,26.23
2022-09-12T12:30:54.681Z,25.95
2022-09-12T12:34:05.653Z,26.22
2022-09-12T12:37:19.802Z,26.18
2022-09-12T12:40:27.433Z,25.98
2022-09-12T12:43:32.722Z,26.07
2022-09-12T12:46:39.092Z,25.99
2022-09-12T12:49:56.344Z,26.10
2022-09-12T12:53:06.111Z,26.00
2022-09-12T12:56:28.684Z,26.05
2022-09-12T12:59:34.864Z,26.09
2022-09-12T13:02:50.674Z,26.18
2022-09-12T13:06:02.936Z,26.20
2022-09-12T13:09:39.855Z,26.32
2022-09-12T13:12:48.090Z,26.65
2022-09-12T13:15:54.096Z,26.25
2022-09-12T13:19:08.242Z,26.49
2022-09-12T13:22:13.302Z,26.54
2022-09-12T13:25:20.348Z,26.70
2022-09-12T13:28:26.802Z,26.51
2022-09-12T13:31:33.063Z,26.67
2022-09-12T13:34:56.118Z,26.76
2022-09-12T13:38:37.417Z,26.76
2022-09-12T13:41:54.715Z,26.77
2022-09-12T13:45:22.251Z,26.84
2022-09-12T13:48:28.296Z,26.88
2022-09-12T13:51:34.754Z,26.94
2022-09-12T13:54:41.115Z,26.76
2022-09-12T13:57:55.940Z,26.68
2022-09-12T14:01:10.251Z,26.43
2022-09-12T14:04:41.757Z,26.77
2022-09-12T14:08:05.134Z,26.62
2022-09-12T14:11:12.254Z,26.62
2022-09-12T14:14:34.436Z,26.30
2022-09-12T14:17:40.407Z,25.96
2022-09-12T14:20:47.567Z,26.11
2022-09-12T14:23:55.369Z,26.32
2022-09-12T14:27:01.421Z,26.36
2022-09-12T14:30:28.732Z,26.44
2022-09-12T14:33:56.674Z,26.56
2022-09-12T14:37:07.119Z,26.75
2022-09-12T14:40:24.158Z,26.73
2022-09-12T14:43:29.636Z,26.78
2022-09-12T14:46:39.934Z,26.81
2022-09-12T14:49:46.005Z,26.93
2022-09-12T14:53:21.697Z,27.06
2022-09-12T14:56:45.451Z,26.93
2022-09-12T14:59:51.135Z,26.71
2022-09-12T15:03:23.929Z,26.84
2022-09-12T15:06:38.117Z,26.83
2022-09-12T15:09:47.272Z,26.75
2022-09-12T15:13:12.444Z,26.87
2022-09-12T15:16:17.955Z,26.75
2022-09-12T15:19:23.555Z,26.66
2022-09-12T15:22:28.780Z,26.73
2022-09-12T15:25:34.194Z,26.83
2022-09-12T15:28:40.153Z,26.68
2022-09-12T15:31:47.877Z,26.52
2022-09-12T15:34:55.334Z,26.56
2022-09-12T15:38:00.960Z,26.60
2022-09-12T15:41:19.687Z,26.61
2022-09-12T15:44:24.993Z,26.53
2022-09-12T15:47:30.319Z,26.54
2022-09-12T15:50:36.418Z,26.47
2022-09-12T15:53:42.377Z,26.35
2022-09-12T15:56:47.712Z,26.34
2022-09-12T15:59:53.406Z,26.33
2022-09-12T16:02:58.679Z,26.19
2022-09-12T16:06:04.777Z,26.23
2022-09-12T16:09:14.802Z,26.18
2022-09-12T16:12:21.674Z,26.14
2022-09-12T16:15:26.978Z,26.09
2022-09-12T16:18:32.260Z,26.06
2022-09-12T16:21:38.569Z,26.13
2022-09-12T16:24:44.115Z,26.08
2022-09-12T16:27:50.365Z,26.01
2022-09-12T16:31:00.607Z,25.95
2022-09-12T16:34:06.928Z,25.87
2022-09-12T16:37:12.285Z,25.93
2022-09-12T16:40:19.819Z,25.87
2022-09-12T16:43:25.643Z,25.85
2022-09-12T16:46:31.211Z,25.82
2022-09-12T16:49:36.959Z,25.66
2022-09-12T16:52:42.244Z,25.50
2022-09-12T16:55:51.563Z,25.38
2022-09-12T16:58:57.109Z,25.17
2022-09-12T17:02:03.706Z,25.07
2022-09-12T17:05:10.012Z,24.87
2022-09-12T17:08:15.346Z,24.94
2022-09-12T17:11:27.204Z,24.80
2022-09-12T17:14:32.255Z,24.84
2022-09-12T17:17:37.356Z,24.61
2022-09-12T17:20:42.695Z,24.56
2022-09-12T17:23:48.392Z,24.59
2022-09-12T17:26:55.010Z,24.57
2022-09-12T17:30:00.874Z,24.59
2022-09-12T17:33:06.805Z,24.45
2022-09-12T17:36:18.569Z,24.30
2022-09-12T17:39:24.432Z,24.29
2022-09-12T17:42:30.566Z,24.06
2022-09-12T17:45:36.545Z,24.06
2022-09-12T17:48:42.449Z,23.98
2022-09-12T17:51:48.947Z,23.91
2022-09-12T17:54:54.835Z,23.91
2022-09-12T17:58:02.983Z,23.93
2022-09-12T18:01:34.652Z,23.83
2022-09-12T18:04:42.046Z,23.79
2022-09-12T18:07:47.720Z,23.69
2022-09-12T18:10:53.879Z,23.67
2022-09-12T18:14:00.252Z,23.62
2022-09-12T18:17:08.593Z,23.60
2022-09-12T18:20:14.437Z,23.59
2022-09-12T18:23:20.394Z,23.57
2022-09-12T18:26:28.499Z,23.50
2022-09-12T18:29:34.429Z,23.43
2022-09-12T18:32:39.889Z,23.35
2022-09-12T18:35:45.361Z,23.23
2022-09-12T18:38:52.586Z,23.18
2022-09-12T18:41:58.376Z,23.23
2022-09-12T18:45:04.430Z,23.16
2022-09-12T18:48:09.731Z,23.19
2022-09-12T18:51:18.599Z,23.16
2022-09-12T18:54:24.422Z,23.11
2022-09-12T18:57:35.328Z,22.98
2022-09-12T19:00:41.865Z,22.95
2022-09-12T19:03:48.842Z,22.89
2022-09-12T19:06:54.422Z,22.89
2022-09-12T19:10:00.629Z,22.96
2022-09-12T19:13:05.802Z,22.88
2022-09-12T19:16:14.731Z,22.90
2022-09-12T19:19:21.721Z,22.79
2022-09-12T19:22:28.030Z,22.82
2022-09-12T19:25:33.647Z,22.72
2022-09-12T19:28:39.399Z,22.66
2022-09-12T19:31:46.979Z,22.18
2022-09-12T19:34:52.475Z,22.24
2022-09-12T19:37:58.100Z,22.32
2022-09-12T19:41:07.416Z,22.22
2022-09-12T19:44:13.928Z,22.36
2022-09-12T19:47:19.353Z,22.16
2022-09-12T19:50:25.275Z,22.10
2022-09-12T19:53:32.062Z,21.99
2022-09-12T19:56:37.644Z,21.97
2022-09-12T19:59:43.503Z,21.98
2022-09-12T20:02:53.387Z,21.92
2022-09-12T20:06:26.257Z,21.80
2022-09-12T20:09:31.854Z,21.72
2022-09-12T20:12:37.422Z,21.62
2022-09-12T20:15:43.217Z,21.59
2022-09-12T20:18:49.788Z,21.53
2022-09-12T20:21:55.448Z,21.50
2022-09-12T20:25:01.272Z,21.51
2022-09-12T20:28:07.215Z,21.62
2022-09-12T20:31:16.718Z,21.49
2022-09-12T20:34:22.797Z,21.46
2022-09-12T20:37:30.570Z,21.40
2022-09-12T20:40:35.884Z,21.31
2022-09-12T20:43:41.363Z,21.37
2022-09-12T20:46:47.170Z,21.23
2022-09-12T20:49:53.080Z,21.17
2022-09-12T20:52:59.505Z,21.24
2022-09-12T20:56:07.248Z,21.19
2022-09-12T20:59:13.514Z,21.07
2022-09-12T21:02:19.437Z,21.15
2022-09-12T21:05:25.298Z,21.18
2022-09-12T21:08:32.967Z,21.11
2022-09-12T21:11:38.485Z,21.03
2022-09-12T21:14:43.965Z,21.01
2022-09-12T21:17:49.775Z,21.02
2022-09-12T21:20:56.957Z,20.97
2022-09-12T21:24:03.986Z,20.79
2022-09-12T21:27:09.179Z,20.89
2022-09-12T21:30:15.005Z,20.84
2022-09-12T21:33:21.375Z,20.81
2022-09-12T21:36:27.302Z,20.74
2022-09-12T21:39:32.497Z,20.72
2022-09-12T21:42:38.106Z,20.63
2022-09-12T21:45:43.965Z,20.65
2022-09-12T21:48:49.841Z,20.59
2022-09-12T21:51:55.588Z,20.58
2022-09-12T21:55:01.297Z,20.56
2022-09-12T21:58:07.295Z,20.52
2022-09-12T22:01:13.417Z,20.44
2022-09-12T22:04:19.100Z,20.47
2022-09-12T22:07:25.442Z,20.43
2022-09-12T22:10:31.089Z,20.47
2022-09-12T22:13:39.498Z,20.37
2022-09-12T22:16:45.592Z,20.26
2022-09-12T22:19:51.251Z,20.22
2022-09-12T22:23:15.507Z,20.29
2022-09-12T22:26:21.068Z,20.28
2022-09-12T22:29:27.085Z,20.31
2022-09-12T22:32:36.598Z,20.28
2022-09-12T22:35:42.725Z,20.39
2022-09-12T22:38:48.774Z,20.29
2022-09-12T22:41:54.454Z,20.30
2022-09-12T22:45:00.019Z,20.26
2022-09-12T22:48:08.564Z,20.21
2022-09-12T22:51:14.861Z,20.13
2022-09-12T22:54:20.060Z,20.15
2022-09-12T22:57:26.212Z,20.01
2022-09-12T23:00:32.404Z,20.05
2022-09-12T23:03:38.232Z,20.23
2022-09-12T23:06:43.611Z,20.22
2022-09-12T23:09:49.059Z,20.21
2022-09-12T23:12:55.642Z,19.99
2022-09-12T23:16:03.337Z,20.08
2022-09-12T23:19:09.083Z,20.28
2022-09-12T23:22:14.561Z,20.18
2022-09-12T23:25:23.928Z,19.98
2022-09-12T23:28:30.022Z,20.04
2022-09-12T23:31:35.349Z,19.95
2022-09-12T23:34:40.790Z,19.82
2022-09-12T23:37:47.146Z,19.85
2022-09-12T23:40:52.732Z,19.82
2022-09-12T23:43:58.989Z,19.89
2022-09-12T23:47:04.674Z,20.01
2022-09-12T23:50:10.574Z,20.05
2022-09-12T23:53:18.275Z,20.09
2022-09-12T23:56:23.560Z,20.08
2022-09-12T23:59:31.421Z,20.07
